createdAt,value
2022-09-22T00:00:55.761Z,99.99
2022-09-22T00:01:55.777Z,99.99
2022-09-22T00:02:55.685Z,99.99
2022-09-22T00:03:55.697Z,99.99
2022-09-22T00:04:55.662Z,99.99
2022-09-22T00:05:55.676Z,99.99
2022-09-22T00:06:55.639Z,99.99
2022-09-22T00:07:55.633Z,99.99
2022-09-22T00:08:55.638Z,99.99
2022-09-22T00:09:55.608Z,99.99
2022-09-22T00:10:55.617Z,99.99
2022-09-22T00:11:55.586Z,99.99
2022-09-22T00:12:55.597Z,99.99
2022-09-22T00:13:55.567Z,99.99
2022-09-22T00:14:55.554Z,99.99
2022-09-22T00:15:55.553Z,99.99
2022-09-22T00:16:55.532Z,99.99
2022-09-22T00:17:55.553Z,99.99
2022-09-22T00:18:55.505Z,99.99
2022-09-22T00:19:55.497Z,99.99
2022-09-22T00:20:55.486Z,99.82
2022-09-22T00:21:55.478Z,99.93
2022-09-22T00:22:55.483Z,99.98
2022-09-22T00:23:55.453Z,99.99
2022-09-22T00:24:55.444Z,99.99
2022-09-22T00:25:55.452Z,99.99
2022-09-22T00:26:55.412Z,99.99
2022-09-22T00:27:55.407Z,99.99
2022-09-22T00:28:55.395Z,99.99
2022-09-22T00:29:55.451Z,99.99
2022-09-22T00:30:55.369Z,99.99
2022-09-22T00:31:55.397Z,99.99
2022-09-22T00:32:55.344Z,99.99
2022-09-22T00:33:55.417Z,99.99
2022-09-22T00:34:55.324Z,99.99
2022-09-22T00:35:55.312Z,99.99
2022-09-22T00:36:55.317Z,99.99
2022-09-22T00:37:55.294Z,99.99
2022-09-22T00:38:55.302Z,99.99
2022-09-22T00:39:55.272Z,99.99
2022-09-22T00:40:55.256Z,99.99
2022-09-22T00:41:55.271Z,99.99
2022-09-22T00:42:55.234Z,99.99
2022-09-22T00:43:55.222Z,99.92
2022-09-22T00:44:55.230Z,99.99
2022-09-22T00:45:55.201Z,99.99
2022-09-22T00:46:55.265Z,99.99
2022-09-22T00:47:55.176Z,99.99
2022-09-22T00:48:55.166Z,99.99
2022-09-22T00:49:55.194Z,99.99
2022-09-22T00:50:55.141Z,99.99
2022-09-22T00:51:55.141Z,99.99
2022-09-22T00:52:55.121Z,99.99
2022-09-22T00:53:55.110Z,99.99
2022-09-22T00:54:55.121Z,99.99
2022-09-22T00:55:55.086Z,99.99
2022-09-22T00:56:55.074Z,99.99
2022-09-22T00:57:55.066Z,99.99
2022-09-22T00:58:55.054Z,99.99
2022-09-22T00:59:55.042Z,99.99
2022-09-22T01:00:55.212Z,99.99
2022-09-22T01:01:55.097Z,99.99
2022-09-22T01:02:55.005Z,99.99
2022-09-22T01:03:54.997Z,99.99
2022-09-22T01:04:55.004Z,99.99
2022-09-22T01:05:54.988Z,99.99
2022-09-22T01:06:55.431Z,99.99
2022-09-22T01:07:54.978Z,99.99
2022-09-22T01:08:54.949Z,99.99
2022-09-22T01:09:54.950Z,99.99
2022-09-22T01:10:54.969Z,99.99
2022-09-22T01:11:54.908Z,99.99
2022-09-22T01:12:54.894Z,99.99
2022-09-22T01:13:54.882Z,99.99
2022-09-22T01:14:54.870Z,99.99
2022-09-22T01:15:54.929Z,99.99
2022-09-22T01:16:54.845Z,99.99
2022-09-22T01:17:54.863Z,99.99
2022-09-22T01:18:54.823Z,99.99
2022-09-22T01:19:54.843Z,99.99
2022-09-22T01:20:54.831Z,99.99
2022-09-22T01:21:54.850Z,99.99
2022-09-22T01:22:54.801Z,99.99
2022-09-22T01:23:54.770Z,99.99
2022-09-22T01:24:54.756Z,99.99
2022-09-22T01:25:54.769Z,99.99
2022-09-22T01:26:54.734Z,99.99
2022-09-22T01:27:57.601Z,99.99
2022-09-22T01:28:54.718Z,99.99
2022-09-22T01:29:54.703Z,99.99
2022-09-22T01:30:54.746Z,99.99
2022-09-22T01:31:54.681Z,99.99
2022-09-22T01:32:54.666Z,99.99
2022-09-22T01:33:54.661Z,99.99
2022-09-22T01:34:54.647Z,99.99
2022-09-22T01:35:54.657Z,99.99
2022-09-22T01:36:54.623Z,99.99
2022-09-22T01:37:54.630Z,99.99
2022-09-22T01:38:54.647Z,99.99
2022-09-22T01:39:54.630Z,99.99
2022-09-22T01:40:54.583Z,99.99
2022-09-22T01:41:54.565Z,99.99
2022-09-22T01:42:54.641Z,99.99
2022-09-22T01:43:54.546Z,99.99
2022-09-22T01:44:54.537Z,99.99
2022-09-22T01:45:54.521Z,99.99
2022-09-22T01:46:54.526Z,99.99
2022-09-22T01:47:54.503Z,99.99
2022-09-22T01:48:54.641Z,99.99
2022-09-22T01:49:54.476Z,99.99
2022-09-22T01:50:54.462Z,99.99
2022-09-22T01:51:54.459Z,99.99
2022-09-22T01:52:54.442Z,99.99
2022-09-22T01:53:54.648Z,99.99
2022-09-22T01:54:54.422Z,99.99
2022-09-22T01:55:54.426Z,99.99
2022-09-22T01:56:54.397Z,99.99
2022-09-22T01:57:54.385Z,99.99
2022-09-22T01:58:54.394Z,99.99
2022-09-22T01:59:54.360Z,99.99
2022-09-22T02:00:54.355Z,99.99
2022-09-22T02:01:54.448Z,99.99
2022-09-22T02:02:54.489Z,99.99
2022-09-22T02:03:54.318Z,99.99
2022-09-22T02:04:54.331Z,99.99
2022-09-22T02:05:54.292Z,99.99
2022-09-22T02:06:54.287Z,99.99
2022-09-22T02:07:54.268Z,99.99
2022-09-22T02:08:54.283Z,99.99
2022-09-22T02:09:54.293Z,99.99
2022-09-22T02:10:54.240Z,99.99
2022-09-22T02:11:54.228Z,99.99
2022-09-22T02:12:54.217Z,99.99
2022-09-22T02:13:54.251Z,99.99
2022-09-22T02:14:54.196Z,99.99
2022-09-22T02:15:54.254Z,99.99
2022-09-22T02:16:54.190Z,99.99
2022-09-22T02:17:54.183Z,99.99
2022-09-22T02:18:54.149Z,99.99
2022-09-22T02:19:54.312Z,99.99
2022-09-22T02:20:54.133Z,99.99
2022-09-22T02:21:54.135Z,99.99
2022-09-22T02:22:54.101Z,99.99
2022-09-22T02:23:54.117Z,99.99
2022-09-22T02:24:54.082Z,99.99
2022-09-22T02:25:54.084Z,99.99
2022-09-22T02:26:54.064Z,99.99
2022-09-22T02:27:54.049Z,99.99
2022-09-22T02:28:54.059Z,99.99
2022-09-22T02:29:54.022Z,99.99
2022-09-22T02:31:10.900Z,99.99
2022-09-22T02:31:55.117Z,99.99
2022-09-22T02:32:53.990Z,99.99
2022-09-22T02:33:54.001Z,99.99
2022-09-22T02:34:53.969Z,99.99
2022-09-22T02:35:53.956Z,99.99
2022-09-22T02:36:53.947Z,99.99
2022-09-22T02:37:53.932Z,99.99
2022-09-22T02:38:53.953Z,99.99
2022-09-22T02:39:53.916Z,99.99
2022-09-22T02:40:53.909Z,99.99
2022-09-22T02:41:53.905Z,99.99
2022-09-22T02:42:53.902Z,99.99
2022-09-22T02:43:53.867Z,99.99
2022-09-22T02:44:53.892Z,99.99
2022-09-22T02:45:53.870Z,99.99
2022-09-22T02:46:53.860Z,99.99
2022-09-22T02:47:53.909Z,99.99
2022-09-22T02:48:53.819Z,99.99
2022-09-22T02:49:53.802Z,99.99
2022-09-22T02:50:53.788Z,99.99
2022-09-22T02:51:53.776Z,99.99
2022-09-22T02:52:53.791Z,99.99
2022-09-22T02:53:53.755Z,99.99
2022-09-22T02:54:53.769Z,99.99
2022-09-22T02:55:53.732Z,99.99
2022-09-22T02:56:53.720Z,99.99
2022-09-22T02:57:53.732Z,99.99
2022-09-22T02:58:58.223Z,99.99
2022-09-22T02:59:53.745Z,99.99
2022-09-22T03:00:53.700Z,99.99
2022-09-22T03:01:53.723Z,99.99
2022-09-22T03:02:53.655Z,99.99
2022-09-22T03:03:53.640Z,99.99
2022-09-22T03:04:53.856Z,99.99
2022-09-22T03:05:53.619Z,99.99
2022-09-22T03:06:53.671Z,99.99
2022-09-22T03:07:53.599Z,99.99
2022-09-22T03:08:53.584Z,99.99
2022-09-22T03:09:53.607Z,99.99
2022-09-22T03:10:53.564Z,99.99
2022-09-22T03:11:53.573Z,99.99
2022-09-22T03:13:14.930Z,99.99
2022-09-22T03:13:54.552Z,99.99
2022-09-22T03:14:53.519Z,99.99
2022-09-22T03:15:53.572Z,99.99
2022-09-22T03:16:53.519Z,99.99
2022-09-22T03:17:53.488Z,99.99
2022-09-22T03:18:53.475Z,99.99
2022-09-22T03:19:53.508Z,99.99
2022-09-22T03:20:53.475Z,99.99
2022-09-22T03:21:53.443Z,99.99
2022-09-22T03:22:53.431Z,99.99
2022-09-22T03:23:53.422Z,99.99
2022-09-22T03:24:53.408Z,99.99
2022-09-22T03:25:53.417Z,99.99
2022-09-22T03:26:53.384Z,99.99
2022-09-22T03:27:53.379Z,99.99
2022-09-22T03:28:53.365Z,99.99
2022-09-22T03:29:53.369Z,99.99
2022-09-22T03:30:53.560Z,99.99
2022-09-22T03:31:53.338Z,99.99
2022-09-22T03:32:53.322Z,99.99
2022-09-22T03:33:53.308Z,99.99
2022-09-22T03:34:53.296Z,99.99
2022-09-22T03:35:53.285Z,99.99
2022-09-22T03:36:53.295Z,99.99
2022-09-22T03:37:53.274Z,99.99
2022-09-22T03:38:53.252Z,99.99
2022-09-22T03:39:53.261Z,99.99
2022-09-22T03:40:53.227Z,99.99
2022-09-22T03:41:53.218Z,99.99
2022-09-22T03:42:53.231Z,99.99
2022-09-22T03:43:53.198Z,99.99
2022-09-22T03:44:53.209Z,99.99
2022-09-22T03:45:53.301Z,99.99
2022-09-22T03:46:53.185Z,99.99
2022-09-22T03:47:53.157Z,99.99
2022-09-22T03:48:53.162Z,99.99
2022-09-22T03:49:53.131Z,99.99
2022-09-22T03:50:53.119Z,99.99
2022-09-22T03:51:53.127Z,99.99
2022-09-22T03:52:53.093Z,99.99
2022-09-22T03:53:53.107Z,99.99
2022-09-22T03:54:53.073Z,99.99
2022-09-22T03:55:53.089Z,99.99
2022-09-22T03:56:53.049Z,99.99
2022-09-22T03:57:53.063Z,99.99
2022-09-22T03:58:53.051Z,99.99
2022-09-22T03:59:53.016Z,99.99
2022-09-22T04:00:53.026Z,99.99
2022-09-22T04:01:57.509Z,99.99
2022-09-22T04:02:53.983Z,99.99
2022-09-22T04:03:53.162Z,99.99
2022-09-22T04:04:52.968Z,99.99
2022-09-22T04:05:52.953Z,99.99
2022-09-22T04:06:52.941Z,99.99
2022-09-22T04:07:52.928Z,99.99
2022-09-22T04:08:52.917Z,99.99
2022-09-22T04:09:52.928Z,99.99
2022-09-22T04:10:52.896Z,99.99
2022-09-22T04:11:52.884Z,99.99
2022-09-22T04:12:52.871Z,99.99
2022-09-22T04:13:52.865Z,99.99
2022-09-22T04:14:52.868Z,99.99
2022-09-22T04:15:52.862Z,99.99
2022-09-22T04:16:52.996Z,99.99
2022-09-22T04:17:52.831Z,99.99
2022-09-22T04:18:52.805Z,99.99
2022-09-22T04:19:52.818Z,99.99
2022-09-22T04:20:52.784Z,99.99
2022-09-22T04:21:57.063Z,99.99
2022-09-22T04:22:52.761Z,99.99
2022-09-22T04:23:52.747Z,99.99
2022-09-22T04:24:52.838Z,99.99
2022-09-22T04:25:52.728Z,99.99
2022-09-22T04:27:18.030Z,99.99
2022-09-22T04:27:53.709Z,99.99
2022-09-22T04:28:52.691Z,99.99
2022-09-22T04:29:52.710Z,99.99
2022-09-22T04:30:52.707Z,99.99
2022-09-22T04:31:52.660Z,99.99
2022-09-22T04:32:52.645Z,99.99
2022-09-22T04:33:52.653Z,99.99
2022-09-22T04:34:52.649Z,99.99
2022-09-22T04:35:52.616Z,99.99
2022-09-22T04:36:52.602Z,99.99
2022-09-22T04:37:52.597Z,99.99
2022-09-22T04:38:52.614Z,99.99
2022-09-22T04:39:52.811Z,99.99
2022-09-22T04:40:52.557Z,99.99
2022-09-22T04:41:52.547Z,99.99
2022-09-22T04:42:52.533Z,99.99
2022-09-22T04:43:52.526Z,99.99
2022-09-22T04:44:52.669Z,99.99
2022-09-22T04:45:52.540Z,99.99
2022-09-22T04:46:52.491Z,99.99
2022-09-22T04:47:52.480Z,99.99
2022-09-22T04:48:52.469Z,99.99
2022-09-22T04:49:52.499Z,99.99
2022-09-22T04:50:52.442Z,99.99
2022-09-22T04:51:52.437Z,99.99
2022-09-22T04:52:52.423Z,99.99
2022-09-22T04:53:52.725Z,99.99
2022-09-22T04:54:52.404Z,99.99
2022-09-22T04:55:52.410Z,99.99
2022-09-22T04:56:52.381Z,99.99
2022-09-22T04:57:52.388Z,99.99
2022-09-22T04:58:52.356Z,99.99
2022-09-22T04:59:52.346Z,99.99
2022-09-22T05:00:52.453Z,99.99
2022-09-22T05:01:52.323Z,99.99
2022-09-22T05:02:52.398Z,99.99
2022-09-22T05:03:52.323Z,99.99
2022-09-22T05:04:52.290Z,99.99
2022-09-22T05:05:52.296Z,99.99
2022-09-22T05:06:52.265Z,99.99
2022-09-22T05:07:52.256Z,99.99
2022-09-22T05:08:52.266Z,99.99
2022-09-22T05:09:52.235Z,99.99
2022-09-22T05:10:52.240Z,99.99
2022-09-22T05:11:52.211Z,99.99
2022-09-22T05:12:52.239Z,99.99
2022-09-22T05:13:52.192Z,99.99
2022-09-22T05:14:52.178Z,99.99
2022-09-22T05:15:52.185Z,99.99
2022-09-22T05:16:52.280Z,99.99
2022-09-22T05:17:52.148Z,99.99
2022-09-22T05:18:52.131Z,99.99
2022-09-22T05:19:52.121Z,99.99
2022-09-22T05:20:52.110Z,99.99
2022-09-22T05:21:52.137Z,99.99
2022-09-22T05:22:52.087Z,99.99
2022-09-22T05:23:52.081Z,99.99
2022-09-22T05:24:52.164Z,99.99
2022-09-22T05:25:52.075Z,99.99
2022-09-22T05:26:52.042Z,99.99
2022-09-22T05:27:52.035Z,99.99
2022-09-22T05:28:52.020Z,99.99
2022-09-22T05:29:52.013Z,99.99
2022-09-22T05:30:52.019Z,99.99
2022-09-22T05:31:52.025Z,99.99
2022-09-22T05:32:51.998Z,99.99
2022-09-22T05:33:51.968Z,99.99
2022-09-22T05:34:51.954Z,99.99
2022-09-22T05:35:51.943Z,99.99
2022-09-22T05:36:51.951Z,99.99
2022-09-22T05:37:51.957Z,99.99
2022-09-22T05:38:51.907Z,99.99
2022-09-22T05:39:51.897Z,99.99
2022-09-22T05:40:51.935Z,99.99
2022-09-22T05:41:51.897Z,99.99
2022-09-22T05:42:51.902Z,99.99
2022-09-22T05:43:51.853Z,99.99
2022-09-22T05:44:51.839Z,99.99
2022-09-22T05:45:51.869Z,99.99
2022-09-22T05:46:51.902Z,99.99
2022-09-22T05:47:51.810Z,99.99
2022-09-22T05:48:51.814Z,99.99
2022-09-22T05:49:51.787Z,99.99
2022-09-22T05:50:51.772Z,99.99
2022-09-22T05:51:51.767Z,99.99
2022-09-22T05:52:51.748Z,99.99
2022-09-22T05:53:51.778Z,99.99
2022-09-22T05:54:51.729Z,99.99
2022-09-22T05:55:51.718Z,99.99
2022-09-22T05:56:51.708Z,99.99
2022-09-22T05:57:51.945Z,99.99
2022-09-22T05:58:51.681Z,99.99
2022-09-22T05:59:51.680Z,99.99
2022-09-22T06:00:51.712Z,99.99
2022-09-22T06:01:54.823Z,99.99
2022-09-22T06:02:52.694Z,99.99
2022-09-22T06:03:51.630Z,99.99
2022-09-22T06:04:51.617Z,99.99
2022-09-22T06:05:51.619Z,99.99
2022-09-22T06:06:51.595Z,99.99
2022-09-22T06:07:51.608Z,99.99
2022-09-22T06:08:51.571Z,99.99
2022-09-22T06:09:51.591Z,99.99
2022-09-22T06:10:51.573Z,99.99
2022-09-22T06:11:51.538Z,99.99
2022-09-22T06:12:51.530Z,99.99
2022-09-22T06:13:51.539Z,99.99
2022-09-22T06:14:51.506Z,99.99
2022-09-22T06:15:51.503Z,99.99
2022-09-22T06:16:51.534Z,99.99
2022-09-22T06:17:51.472Z,99.99
2022-09-22T06:18:51.483Z,99.99
2022-09-22T06:19:51.448Z,99.99
2022-09-22T06:20:51.436Z,99.99
2022-09-22T06:21:51.426Z,99.99
2022-09-22T06:22:51.421Z,99.99
2022-09-22T06:23:51.428Z,99.99
2022-09-22T06:24:51.392Z,99.99
2022-09-22T06:25:51.398Z,99.99
2022-09-22T06:26:51.391Z,99.99
2022-09-22T06:27:51.360Z,99.99
2022-09-22T06:28:51.347Z,99.99
2022-09-22T06:29:51.339Z,99.99
2022-09-22T06:30:51.344Z,99.99
2022-09-22T06:31:51.387Z,99.99
2022-09-22T06:32:51.303Z,99.99
2022-09-22T06:33:51.293Z,99.99
2022-09-22T06:34:51.282Z,99.99
2022-09-22T06:35:51.292Z,99.99
2022-09-22T06:36:51.261Z,99.99
2022-09-22T06:37:51.248Z,99.99
2022-09-22T06:38:51.235Z,99.99
2022-09-22T06:39:51.249Z,99.99
2022-09-22T06:40:51.277Z,99.99
2022-09-22T06:41:51.224Z,99.99
2022-09-22T06:42:51.189Z,99.99
2022-09-22T06:43:51.181Z,99.99
2022-09-22T06:44:51.190Z,99.99
2022-09-22T06:45:51.235Z,99.99
2022-09-22T06:46:51.146Z,99.99
2022-09-22T06:47:51.135Z,99.99
2022-09-22T06:48:51.123Z,99.99
2022-09-22T06:49:51.137Z,99.99
2022-09-22T06:50:51.101Z,99.99
2022-09-22T06:51:51.095Z,99.99
2022-09-22T06:52:51.079Z,99.99
2022-09-22T06:53:52.076Z,99.99
2022-09-22T06:54:53.293Z,99.99
2022-09-22T06:55:53.219Z,99.99
2022-09-22T06:56:51.038Z,99.99
2022-09-22T06:57:51.041Z,99.99
2022-09-22T06:59:08.809Z,99.99
2022-09-22T06:59:51.999Z,99.99
2022-09-22T07:00:51.169Z,99.99
2022-09-22T07:01:51.061Z,99.99
2022-09-22T07:02:50.968Z,99.99
2022-09-22T07:03:50.977Z,99.99
2022-09-22T07:04:50.940Z,99.99
2022-09-22T07:05:50.931Z,99.99
2022-09-22T07:06:50.916Z,99.99
2022-09-22T07:07:50.911Z,99.99
2022-09-22T07:08:50.922Z,99.99
2022-09-22T07:09:50.886Z,99.99
2022-09-22T07:10:50.878Z,99.99
2022-09-22T07:11:50.869Z,99.99
2022-09-22T07:12:50.875Z,99.99
2022-09-22T07:13:50.861Z,99.99
2022-09-22T07:14:50.832Z,99.99
2022-09-22T07:15:50.888Z,99.99
2022-09-22T07:16:50.811Z,99.99
2022-09-22T07:17:50.799Z,99.99
2022-09-22T07:18:50.818Z,99.99
2022-09-22T07:19:50.777Z,99.99
2022-09-22T07:20:50.766Z,99.99
2022-09-22T07:21:50.754Z,99.99
2022-09-22T07:22:50.762Z,99.99
2022-09-22T07:23:50.781Z,99.99
2022-09-22T07:24:50.720Z,99.99
2022-09-22T07:25:50.705Z,99.99
2022-09-22T07:26:50.719Z,99.99
2022-09-22T07:27:50.681Z,99.99
2022-09-22T07:28:50.675Z,99.99
2022-09-22T07:29:50.675Z,99.99
2022-09-22T07:30:50.647Z,99.62
2022-09-22T07:31:50.669Z,99.93
2022-09-22T07:32:50.646Z,99.98
2022-09-22T07:33:50.613Z,99.37
2022-09-22T07:34:50.606Z,99.98
2022-09-22T07:35:50.592Z,99.99
2022-09-22T07:36:50.619Z,99.63
2022-09-22T07:37:50.568Z,99.32
2022-09-22T07:38:50.560Z,98.80
2022-09-22T07:39:50.573Z,98.70
2022-09-22T07:40:50.628Z,98.35
2022-09-22T07:41:50.526Z,98.25
2022-09-22T07:42:50.514Z,97.83
2022-09-22T07:43:50.499Z,97.28
2022-09-22T07:44:50.916Z,97.17
2022-09-22T07:45:50.497Z,97.17
2022-09-22T07:46:50.574Z,96.82
2022-09-22T07:47:50.499Z,97.13
2022-09-22T07:48:50.445Z,96.82
2022-09-22T07:49:50.433Z,96.06
2022-09-22T07:50:50.426Z,94.62
2022-09-22T07:51:50.410Z,94.32
2022-09-22T07:52:50.400Z,95.03
2022-09-22T07:53:50.417Z,94.17
2022-09-22T07:54:50.383Z,93.66
2022-09-22T07:55:50.365Z,92.83
2022-09-22T07:56:50.353Z,93.20
2022-09-22T07:57:50.344Z,93.20
2022-09-22T07:58:50.389Z,92.69
2022-09-22T07:59:50.324Z,92.85
2022-09-22T08:00:50.359Z,92.75
2022-09-22T08:01:50.434Z,92.24
2022-09-22T08:02:50.408Z,92.55
2022-09-22T08:03:50.276Z,91.78
2022-09-22T08:04:50.279Z,91.58
2022-09-22T08:05:50.254Z,90.97
2022-09-22T08:06:50.242Z,91.27
2022-09-22T08:07:50.250Z,90.97
2022-09-22T08:08:50.220Z,90.92
2022-09-22T08:09:50.253Z,90.06
2022-09-22T08:10:50.218Z,90.27
2022-09-22T08:11:50.189Z,89.72
2022-09-22T08:12:50.175Z,90.06
2022-09-22T08:13:50.189Z,90.12
2022-09-22T08:14:50.155Z,89.20
2022-09-22T08:15:50.189Z,88.53
2022-09-22T08:16:50.141Z,88.29
2022-09-22T08:17:50.134Z,88.39
2022-09-22T08:18:50.130Z,88.29
2022-09-22T08:19:50.093Z,88.55
2022-09-22T08:20:50.082Z,87.43
2022-09-22T08:21:50.091Z,85.35
2022-09-22T08:22:50.083Z,85.18
2022-09-22T08:23:50.048Z,85.86
2022-09-22T08:24:50.037Z,85.92
2022-09-22T08:25:50.048Z,84.28
2022-09-22T08:26:50.017Z,85.00
2022-09-22T08:27:50.031Z,85.10
2022-09-22T08:28:49.992Z,84.86
2022-09-22T08:29:49.984Z,85.16
2022-09-22T08:30:49.972Z,84.14
2022-09-22T08:31:50.010Z,83.94
2022-09-22T08:32:49.949Z,83.29
2022-09-22T08:33:50.063Z,83.09
2022-09-22T08:34:49.929Z,82.57
2022-09-22T08:35:49.914Z,82.54
2022-09-22T08:36:49.925Z,82.74
2022-09-22T08:37:49.888Z,83.62
2022-09-22T08:38:49.887Z,83.68
2022-09-22T08:39:49.869Z,83.95
2022-09-22T08:40:49.878Z,83.34
2022-09-22T08:41:49.866Z,82.32
2022-09-22T08:42:49.835Z,81.51
2022-09-22T08:43:49.822Z,81.37
2022-09-22T08:44:49.813Z,79.63
2022-09-22T08:45:49.815Z,79.33
2022-09-22T08:46:49.904Z,79.43
2022-09-22T08:47:49.799Z,80.35
2022-09-22T08:48:49.765Z,80.31
2022-09-22T08:49:49.773Z,79.70
2022-09-22T08:50:49.768Z,79.16
2022-09-22T08:51:49.731Z,78.30
2022-09-22T08:52:49.721Z,78.81
2022-09-22T08:53:49.710Z,78.61
2022-09-22T08:54:49.700Z,77.86
2022-09-22T08:55:49.707Z,78.17
2022-09-22T08:56:49.675Z,77.45
2022-09-22T08:57:49.666Z,77.42
2022-09-22T08:58:49.653Z,76.47
2022-09-22T08:59:49.674Z,76.64
2022-09-22T09:00:49.651Z,76.13
2022-09-22T09:01:49.662Z,75.52
2022-09-22T09:02:49.637Z,74.51
2022-09-22T09:03:49.595Z,74.41
2022-09-22T09:04:49.587Z,73.97
2022-09-22T09:05:49.664Z,73.05
2022-09-22T09:06:49.588Z,72.48
2022-09-22T09:07:49.588Z,72.78
2022-09-22T09:08:49.653Z,73.39
2022-09-22T09:09:49.541Z,73.66
2022-09-22T09:10:49.541Z,73.66
2022-09-22T09:11:49.505Z,73.25
2022-09-22T09:12:49.504Z,72.08
2022-09-22T09:13:49.673Z,72.58
2022-09-22T09:14:49.471Z,73.70
2022-09-22T09:15:49.484Z,72.65
2022-09-22T09:16:49.470Z,71.91
2022-09-22T09:17:49.442Z,71.09
2022-09-22T09:18:49.429Z,70.18
2022-09-22T09:19:49.417Z,70.01
2022-09-22T09:20:49.427Z,72.11
2022-09-22T09:21:49.408Z,71.94
2022-09-22T09:22:49.387Z,72.04
2022-09-22T09:25:50.345Z,70.15
2022-09-22T09:26:49.336Z,69.27
2022-09-22T09:27:49.347Z,70.29
2022-09-22T09:28:49.316Z,69.81
2022-09-22T09:29:49.322Z,69.21
2022-09-22T09:30:49.420Z,70.02
2022-09-22T09:31:49.278Z,71.30
2022-09-22T09:32:49.269Z,70.29
2022-09-22T09:33:49.255Z,70.42
2022-09-22T09:34:53.693Z,72.04
2022-09-22T09:35:50.254Z,71.50
2022-09-22T09:36:49.224Z,71.87
2022-09-22T09:37:49.262Z,71.33
2022-09-22T09:38:49.203Z,70.22
2022-09-22T09:39:49.190Z,68.80
2022-09-22T09:40:49.218Z,68.91
2022-09-22T09:41:49.170Z,68.57
2022-09-22T09:42:49.157Z,70.66
2022-09-22T09:43:52.939Z,68.74
2022-09-22T09:44:49.138Z,68.81
2022-09-22T09:45:49.144Z,67.80
2022-09-22T09:46:49.128Z,68.07
2022-09-22T09:47:49.098Z,65.05
2022-09-22T09:48:49.096Z,64.27
2022-09-22T09:49:52.873Z,66.36
2022-09-22T09:50:49.085Z,64.17
2022-09-22T09:51:49.052Z,65.92
2022-09-22T09:52:49.045Z,67.94
2022-09-22T09:53:52.049Z,66.13
2022-09-22T09:54:49.066Z,65.39
2022-09-22T09:55:49.011Z,63.90
2022-09-22T09:56:49.006Z,64.44
2022-09-22T09:57:48.985Z,65.01
2022-09-22T09:58:48.994Z,67.91
2022-09-22T09:59:48.969Z,65.79
2022-09-22T10:00:48.976Z,64.98
2022-09-22T10:01:48.969Z,64.35
2022-09-22T10:02:48.930Z,62.13
2022-09-22T10:03:48.988Z,61.33
2022-09-22T10:04:48.910Z,61.90
2022-09-22T10:05:48.895Z,60.93
2022-09-22T10:06:49.015Z,62.10
2022-09-22T10:07:48.877Z,65.09
2022-09-22T10:08:48.865Z,64.89
2022-09-22T10:09:48.934Z,63.45
2022-09-22T10:10:48.869Z,61.65
2022-09-22T10:11:48.847Z,58.62
2022-09-22T10:12:48.837Z,59.86
2022-09-22T10:13:48.803Z,59.86
2022-09-22T10:14:48.797Z,62.48
2022-09-22T10:15:48.827Z,59.96
2022-09-22T10:16:48.795Z,58.62
2022-09-22T10:17:48.783Z,60.64
2022-09-22T10:18:48.753Z,60.44
2022-09-22T10:19:48.737Z,57.52
2022-09-22T10:20:48.730Z,58.22
2022-09-22T10:21:48.738Z,59.53
2022-09-22T10:22:48.707Z,59.74
2022-09-22T10:23:48.695Z,59.94
2022-09-22T10:24:48.687Z,59.74
2022-09-22T10:25:48.692Z,60.44
2022-09-22T10:26:48.687Z,60.13
2022-09-22T10:27:48.655Z,58.09
2022-09-22T10:28:48.641Z,57.50
2022-09-22T10:29:48.627Z,56.69
2022-09-22T10:30:48.648Z,56.31
2022-09-22T10:31:48.606Z,57.50
2022-09-22T10:32:48.614Z,57.09
2022-09-22T10:33:48.583Z,59.00
2022-09-22T10:34:48.599Z,59.27
2022-09-22T10:35:48.558Z,57.39
2022-09-22T10:36:48.554Z,57.46
2022-09-22T10:37:48.537Z,55.58
2022-09-22T10:38:48.528Z,56.29
2022-09-22T10:39:48.537Z,55.55
2022-09-22T10:40:48.636Z,54.28
2022-09-22T10:41:48.529Z,53.50
2022-09-22T10:42:48.481Z,55.31
2022-09-22T10:43:48.503Z,53.72
2022-09-22T10:44:49.159Z,55.83
2022-09-22T10:45:48.449Z,55.91
2022-09-22T10:46:48.438Z,55.71
2022-09-22T10:47:48.443Z,57.02
2022-09-22T10:48:48.454Z,58.20
2022-09-22T10:49:48.405Z,57.50
2022-09-22T10:50:48.394Z,54.45
2022-09-22T10:51:48.378Z,53.47
2022-09-22T10:52:48.392Z,55.28
2022-09-22T10:53:48.355Z,54.71
2022-09-22T10:54:48.370Z,55.11
2022-09-22T10:55:48.338Z,55.88
2022-09-22T10:56:48.326Z,57.50
2022-09-22T10:57:48.340Z,54.38
2022-09-22T10:58:48.327Z,55.18
2022-09-22T10:59:48.288Z,53.05
2022-09-22T11:00:48.278Z,52.67
2022-09-22T11:01:48.307Z,51.74
2022-09-22T11:02:48.257Z,54.25
2022-09-22T11:03:48.263Z,53.42
2022-09-22T11:04:48.258Z,55.33
2022-09-22T11:05:48.314Z,54.90
2022-09-22T11:06:48.213Z,54.50
2022-09-22T11:07:48.199Z,55.60
2022-09-22T11:08:48.210Z,53.50
2022-09-22T11:09:48.184Z,52.92
2022-09-22T11:10:48.166Z,54.43
2022-09-22T11:11:48.157Z,53.52
2022-09-22T11:12:48.143Z,54.83
2022-09-22T11:13:48.168Z,55.23
2022-09-22T11:14:48.126Z,54.70
2022-09-22T11:15:48.177Z,53.59
2022-09-22T11:16:48.098Z,55.38
2022-09-22T11:17:48.087Z,55.58
2022-09-22T11:18:48.074Z,54.95
2022-09-22T11:19:48.074Z,52.77
2022-09-22T11:20:48.078Z,54.58
2022-09-22T11:21:48.062Z,54.58
2022-09-22T11:22:48.033Z,55.88
2022-09-22T11:23:48.020Z,55.55
2022-09-22T11:24:48.037Z,55.85
2022-09-22T11:25:48.017Z,55.43
2022-09-22T11:26:48.214Z,55.52
2022-09-22T11:27:47.976Z,55.52
2022-09-22T11:28:47.986Z,52.72
2022-09-22T11:29:47.976Z,53.30
2022-09-22T11:30:47.953Z,54.50
2022-09-22T11:31:47.963Z,54.39
2022-09-22T11:32:47.922Z,53.39
2022-09-22T11:33:47.909Z,54.00
2022-09-22T11:34:47.897Z,55.00
2022-09-22T11:35:47.886Z,53.09
2022-09-22T11:36:51.407Z,52.69
2022-09-22T11:37:47.887Z,51.79
2022-09-22T11:38:47.856Z,51.89
2022-09-22T11:39:47.845Z,50.79
2022-09-22T11:40:48.065Z,51.79
2022-09-22T11:41:47.840Z,52.49
2022-09-22T11:42:47.831Z,50.79
2022-09-22T11:43:47.801Z,50.39
2022-09-22T11:44:47.785Z,50.44
2022-09-22T11:45:47.866Z,50.63
2022-09-22T11:46:47.761Z,51.74
2022-09-22T11:47:47.752Z,53.55
2022-09-22T11:48:47.741Z,54.62
2022-09-22T11:49:47.730Z,51.94
2022-09-22T11:50:47.714Z,52.84
2022-09-22T11:51:47.725Z,50.86
2022-09-22T11:52:47.693Z,52.26
2022-09-22T11:53:47.679Z,51.76
2022-09-22T11:54:47.669Z,53.00
2022-09-22T11:55:47.679Z,54.50
2022-09-22T11:56:47.646Z,50.53
2022-09-22T11:57:47.637Z,53.12
2022-09-22T11:58:47.648Z,53.12
2022-09-22T11:59:47.624Z,50.31
2022-09-22T12:00:47.609Z,50.71
2022-09-22T12:01:47.641Z,53.32
2022-09-22T12:02:47.658Z,53.32
2022-09-22T12:03:47.801Z,54.45
2022-09-22T12:04:47.561Z,54.38
2022-09-22T12:05:47.551Z,54.91
2022-09-22T12:06:47.566Z,57.62
2022-09-22T12:07:47.529Z,56.04
2022-09-22T12:08:47.591Z,53.47
2022-09-22T12:09:47.508Z,55.89
2022-09-22T12:10:47.504Z,56.22
2022-09-22T12:11:47.482Z,55.91
2022-09-22T12:12:47.517Z,55.62
2022-09-22T12:13:47.466Z,57.83
2022-09-22T12:14:47.469Z,55.51
2022-09-22T12:15:47.655Z,56.62
2022-09-22T12:16:47.430Z,58.54
2022-09-22T12:17:47.448Z,58.67
2022-09-22T12:18:47.406Z,56.17
2022-09-22T12:20:47.394Z,56.04
2022-09-22T12:21:47.384Z,57.35
2022-09-22T12:22:47.366Z,57.56
2022-09-22T12:23:49.019Z,56.95
2022-09-22T12:24:47.366Z,58.47
2022-09-22T12:25:49.213Z,57.83
2022-09-22T12:26:47.337Z,57.60
2022-09-22T12:27:47.330Z,57.57
2022-09-22T12:28:47.289Z,58.15
2022-09-22T12:29:47.281Z,55.03
2022-09-22T12:30:47.338Z,53.90
2022-09-22T12:31:47.267Z,53.50
2022-09-22T12:32:47.256Z,54.30
2022-09-22T12:33:47.286Z,55.71
2022-09-22T12:34:47.256Z,55.58
2022-09-22T12:35:47.216Z,56.09
2022-09-22T12:36:47.216Z,54.96
2022-09-22T12:37:47.225Z,55.46
2022-09-22T12:38:47.239Z,55.26
2022-09-22T12:39:47.189Z,54.35
2022-09-22T12:40:47.155Z,54.63
2022-09-22T12:41:47.224Z,53.12
2022-09-22T12:42:47.132Z,51.92
2022-09-22T12:43:47.127Z,53.34
2022-09-22T12:44:47.128Z,55.46
2022-09-22T12:45:47.174Z,55.26
2022-09-22T12:46:47.189Z,53.45
2022-09-22T12:47:47.095Z,53.22
2022-09-22T12:48:47.088Z,54.53
2022-09-22T12:49:47.090Z,54.15
2022-09-22T12:50:47.150Z,52.55
2022-09-22T12:51:47.053Z,51.66
2022-09-22T12:52:47.047Z,53.57
2022-09-22T12:54:47.060Z,53.45
2022-09-22T12:55:46.991Z,53.34
2022-09-22T12:56:46.994Z,54.96